sensor_id;sensor_type;location;lat;lon;timestamp;pressure;altitude;pressure_sealevel;temperature;humidity
48555;BME280;34336;48.270;16.716;2023-10-08T00:00:06;109325.25;;;18.16;41.63
48555;BME280;34336;48.270;16.716;2023-10-08T00:02:51;109325.25;;;18.16;41.85
48555;BME280;34336;48.270;16.716;2023-10-08T00:05:19;109325.25;;;18.16;41.63
48555;BME280;34336;48.270;16.716;2023-10-08T00:07:48;109325.25;;;18.16;41.66
48555;BME280;34336;48.270;16.716;2023-10-08T00:10:17;109325.25;;;18.16;42.01
48555;BME280;34336;48.270;16.716;2023-10-08T00:12:45;109325.25;;;18.16;41.87
48555;BME280;34336;48.270;16.716;2023-10-08T00:15:14;109325.25;;;18.16;41.75
48555;BME280;34336;48.270;16.716;2023-10-08T00:17:40;109325.25;;;18.16;41.78
48555;BME280;34336;48.270;16.716;2023-10-08T00:20:08;109325.25;;;18.16;41.89
48555;BME280;34336;48.270;16.716;2023-10-08T00:22:42;109325.25;;;18.16;41.82
48555;BME280;34336;48.270;16.716;2023-10-08T00:25:09;109325.25;;;18.16;42.01
48555;BME280;34336;48.270;16.716;2023-10-08T00:27:38;109325.25;;;18.16;41.97
48555;BME280;34336;48.270;16.716;2023-10-08T00:30:06;109325.25;;;18.16;42.13
48555;BME280;34336;48.270;16.716;2023-10-08T00:32:44;109325.25;;;18.16;41.88
48555;BME280;34336;48.270;16.716;2023-10-08T00:35:12;109325.25;;;18.16;41.85
48555;BME280;34336;48.270;16.716;2023-10-08T00:37:40;109325.25;;;18.16;42.14
48555;BME280;34336;48.270;16.716;2023-10-08T00:40:08;109325.25;;;18.16;42.07
48555;BME280;34336;48.270;16.716;2023-10-08T00:42:38;109325.25;;;18.16;42.17
48555;BME280;34336;48.270;16.716;2023-10-08T00:45:12;109325.25;;;18.16;42.07
48555;BME280;34336;48.270;16.716;2023-10-08T00:47:45;109325.25;;;18.16;41.87
48555;BME280;34336;48.270;16.716;2023-10-08T00:50:13;109325.25;;;18.16;41.79
48555;BME280;34336;48.270;16.716;2023-10-08T00:52:48;109325.25;;;18.16;41.27
48555;BME280;34336;48.270;16.716;2023-10-08T00:55:27;109325.25;;;18.16;41.47
48555;BME280;34336;48.270;16.716;2023-10-08T00:57:57;109325.25;;;18.16;41.52
48555;BME280;34336;48.270;16.716;2023-10-08T01:00:25;109325.25;;;18.16;41.51
48555;BME280;34336;48.270;16.716;2023-10-08T01:03:00;109325.25;;;18.16;41.48
48555;BME280;34336;48.270;16.716;2023-10-08T01:05:29;109325.25;;;18.16;41.40
48555;BME280;34336;48.270;16.716;2023-10-08T01:08:15;109325.25;;;18.16;41.15
48555;BME280;34336;48.270;16.716;2023-10-08T01:11:20;109325.25;;;18.16;41.23
48555;BME280;34336;48.270;16.716;2023-10-08T01:14:06;109325.25;;;18.16;41.38
48555;BME280;34336;48.270;16.716;2023-10-08T01:16:34;109325.25;;;18.16;41.29
48555;BME280;34336;48.270;16.716;2023-10-08T01:19:01;109325.25;;;18.16;41.09
48555;BME280;34336;48.270;16.716;2023-10-08T01:21:29;109325.25;;;18.16;41.08
48555;BME280;34336;48.270;16.716;2023-10-08T01:24:01;109325.25;;;18.16;40.66
48555;BME280;34336;48.270;16.716;2023-10-08T01:26:35;109325.25;;;18.16;40.82
48555;BME280;34336;48.270;16.716;2023-10-08T01:29:09;109325.25;;;18.16;40.38
48555;BME280;34336;48.270;16.716;2023-10-08T01:31:38;109325.25;;;18.16;40.32
48555;BME280;34336;48.270;16.716;2023-10-08T01:34:05;109325.25;;;18.16;40.02
48555;BME280;34336;48.270;16.716;2023-10-08T01:36:34;109325.25;;;18.16;40.14
48555;BME280;34336;48.270;16.716;2023-10-08T01:39:02;109325.25;;;18.16;40.05
48555;BME280;34336;48.270;16.716;2023-10-08T01:41:29;109325.25;;;18.16;40.26
48555;BME280;34336;48.270;16.716;2023-10-08T01:44:00;109325.25;;;18.16;40.20
48555;BME280;34336;48.270;16.716;2023-10-08T01:46:26;109325.25;;;18.16;40.12
48555;BME280;34336;48.270;16.716;2023-10-08T01:48:54;109325.25;;;18.16;40.21
48555;BME280;34336;48.270;16.716;2023-10-08T01:51:30;109325.25;;;18.16;40.31
48555;BME280;34336;48.270;16.716;2023-10-08T01:54:13;109325.25;;;18.16;39.71
48555;BME280;34336;48.270;16.716;2023-10-08T01:56:42;109325.25;;;18.16;39.92
48555;BME280;34336;48.270;16.716;2023-10-08T01:59:10;109325.25;;;18.16;39.78
48555;BME280;34336;48.270;16.716;2023-10-08T02:01:38;109325.25;;;18.16;39.59
48555;BME280;34336;48.270;16.716;2023-10-08T02:04:05;109325.25;;;18.16;39.71
48555;BME280;34336;48.270;16.716;2023-10-08T02:06:34;109325.25;;;18.16;39.85
48555;BME280;34336;48.270;16.716;2023-10-08T02:09:02;109325.25;;;18.16;40.10
48555;BME280;34336;48.270;16.716;2023-10-08T02:11:45;109325.25;;;18.16;40.17
48555;BME280;34336;48.270;16.716;2023-10-08T02:14:13;109325.25;;;18.16;40.11
48555;BME280;34336;48.270;16.716;2023-10-08T02:16:43;109325.25;;;18.16;40.57
48555;BME280;34336;48.270;16.716;2023-10-08T02:19:10;109325.25;;;18.16;40.41
48555;BME280;34336;48.270;16.716;2023-10-08T02:21:39;109325.25;;;18.16;40.47
48555;BME280;34336;48.270;16.716;2023-10-08T02:24:09;109325.25;;;18.16;40.24
48555;BME280;34336;48.270;16.716;2023-10-08T02:26:40;109325.25;;;18.16;40.50
48555;BME280;34336;48.270;16.716;2023-10-08T02:29:09;109325.25;;;18.16;40.13
48555;BME280;34336;48.270;16.716;2023-10-08T02:31:42;109325.25;;;18.16;40.08
48555;BME280;34336;48.270;16.716;2023-10-08T02:34:10;109325.25;;;18.16;40.37
48555;BME280;34336;48.270;16.716;2023-10-08T02:36:40;109325.25;;;18.16;40.11
48555;BME280;34336;48.270;16.716;2023-10-08T02:39:10;109325.25;;;18.16;40.45
48555;BME280;34336;48.270;16.716;2023-10-08T02:41:53;109325.25;;;18.16;40.49
48555;BME280;34336;48.270;16.716;2023-10-08T02:44:23;109325.25;;;18.16;40.64
48555;BME280;34336;48.270;16.716;2023-10-08T02:46:50;109325.25;;;18.16;40.85
48555;BME280;34336;48.270;16.716;2023-10-08T02:49:21;109325.25;;;18.16;40.83
48555;BME280;34336;48.270;16.716;2023-10-08T02:51:53;109325.25;;;18.16;40.91
48555;BME280;34336;48.270;16.716;2023-10-08T02:54:22;109325.25;;;18.16;40.88
48555;BME280;34336;48.270;16.716;2023-10-08T02:56:59;109325.25;;;18.16;40.98
48555;BME280;34336;48.270;16.716;2023-10-08T02:59:31;109325.25;;;18.16;41.08
48555;BME280;34336;48.270;16.716;2023-10-08T03:02:18;109325.25;;;18.16;41.30
48555;BME280;34336;48.270;16.716;2023-10-08T03:04:51;109325.25;;;18.16;41.26
48555;BME280;34336;48.270;16.716;2023-10-08T03:07:20;109325.25;;;18.16;41.18
48555;BME280;34336;48.270;16.716;2023-10-08T03:09:53;109325.25;;;18.16;41.42
48555;BME280;34336;48.270;16.716;2023-10-08T03:12:42;109325.25;;;18.16;41.61
48555;BME280;34336;48.270;16.716;2023-10-08T03:15:10;109325.25;;;18.16;41.43
48555;BME280;34336;48.270;16.716;2023-10-08T03:18:01;109325.25;;;18.16;41.50
48555;BME280;34336;48.270;16.716;2023-10-08T03:20:36;109325.25;;;18.16;41.52
48555;BME280;34336;48.270;16.716;2023-10-08T03:23:07;109325.25;;;18.16;41.84
48555;BME280;34336;48.270;16.716;2023-10-08T03:25:40;109325.25;;;18.16;41.76
48555;BME280;34336;48.270;16.716;2023-10-08T03:28:12;109325.25;;;18.16;41.91
48555;BME280;34336;48.270;16.716;2023-10-08T03:30:40;109325.25;;;18.16;42.17
48555;BME280;34336;48.270;16.716;2023-10-08T03:33:23;109325.25;;;18.16;42.06
48555;BME280;34336;48.270;16.716;2023-10-08T03:35:51;109325.25;;;18.16;42.11
48555;BME280;34336;48.270;16.716;2023-10-08T03:38:22;109325.25;;;18.16;42.40
48555;BME280;34336;48.270;16.716;2023-10-08T03:40:55;109325.25;;;18.16;42.32
48555;BME280;34336;48.270;16.716;2023-10-08T03:43:33;109325.25;;;18.16;42.61
48555;BME280;34336;48.270;16.716;2023-10-08T03:46:13;109325.25;;;18.16;42.65
48555;BME280;34336;48.270;16.716;2023-10-08T03:48:43;109325.25;;;18.16;42.77
48555;BME280;34336;48.270;16.716;2023-10-08T03:51:12;109325.25;;;18.16;43.01
48555;BME280;34336;48.270;16.716;2023-10-08T03:53:39;109325.25;;;18.16;42.98
48555;BME280;34336;48.270;16.716;2023-10-08T03:56:28;109325.25;;;18.16;43.57
48555;BME280;34336;48.270;16.716;2023-10-08T03:58:58;109325.25;;;18.16;43.50
48555;BME280;34336;48.270;16.716;2023-10-08T04:01:42;109325.25;;;18.16;43.65
48555;BME280;34336;48.270;16.716;2023-10-08T04:04:10;109325.25;;;18.16;43.75
48555;BME280;34336;48.270;16.716;2023-10-08T04:06:42;109325.25;;;18.16;43.93
48555;BME280;34336;48.270;16.716;2023-10-08T04:09:17;109325.25;;;18.16;44.20
48555;BME280;34336;48.270;16.716;2023-10-08T04:11:46;109325.25;;;18.16;44.47
48555;BME280;34336;48.270;16.716;2023-10-08T04:14:25;109325.25;;;18.16;45.25
48555;BME280;34336;48.270;16.716;2023-10-08T04:16:54;109325.25;;;18.16;44.93
48555;BME280;34336;48.270;16.716;2023-10-08T04:19:22;109325.25;;;18.16;44.90
48555;BME280;34336;48.270;16.716;2023-10-08T04:21:54;109325.25;;;18.16;45.15
48555;BME280;34336;48.270;16.716;2023-10-08T04:24:25;109325.25;;;18.16;45.05
48555;BME280;34336;48.270;16.716;2023-10-08T04:26:56;109325.25;;;18.16;45.23
48555;BME280;34336;48.270;16.716;2023-10-08T04:29:28;109325.25;;;18.16;45.21
48555;BME280;34336;48.270;16.716;2023-10-08T04:31:59;109325.25;;;18.16;45.10
48555;BME280;34336;48.270;16.716;2023-10-08T04:34:39;109325.25;;;18.16;45.02
48555;BME280;34336;48.270;16.716;2023-10-08T04:37:11;109325.25;;;18.16;44.91
48555;BME280;34336;48.270;16.716;2023-10-08T04:39:46;109325.25;;;18.16;44.89
48555;BME280;34336;48.270;16.716;2023-10-08T04:42:28;109325.25;;;18.16;45.31
48555;BME280;34336;48.270;16.716;2023-10-08T04:44:55;109325.25;;;18.16;45.07
48555;BME280;34336;48.270;16.716;2023-10-08T04:47:22;109325.25;;;18.16;45.25
48555;BME280;34336;48.270;16.716;2023-10-08T04:49:59;109325.25;;;18.16;45.34
48555;BME280;34336;48.270;16.716;2023-10-08T04:52:26;109325.25;;;18.16;45.33
48555;BME280;34336;48.270;16.716;2023-10-08T04:54:54;109325.25;;;18.16;45.33
48555;BME280;34336;48.270;16.716;2023-10-08T04:57:21;109325.25;;;18.16;45.47
48555;BME280;34336;48.270;16.716;2023-10-08T04:59:52;109325.25;;;18.16;45.72
48555;BME280;34336;48.270;16.716;2023-10-08T05:02:24;109325.25;;;18.16;45.45
48555;BME280;34336;48.270;16.716;2023-10-08T05:05:16;109325.25;;;18.16;45.37
48555;BME280;34336;48.270;16.716;2023-10-08T05:07:43;109325.25;;;18.16;45.41
48555;BME280;34336;48.270;16.716;2023-10-08T05:10:14;109325.25;;;18.16;45.65
48555;BME280;34336;48.270;16.716;2023-10-08T05:12:54;109325.25;;;18.16;45.55
48555;BME280;34336;48.270;16.716;2023-10-08T05:15:31;109325.25;;;18.16;45.51
48555;BME280;34336;48.270;16.716;2023-10-08T05:18:24;109325.25;;;18.16;45.76
48555;BME280;34336;48.270;16.716;2023-10-08T05:21:04;109325.25;;;18.16;45.50
48555;BME280;34336;48.270;16.716;2023-10-08T05:23:52;109325.25;;;18.16;45.69
48555;BME280;34336;48.270;16.716;2023-10-08T05:26:38;109325.25;;;18.16;45.34
48555;BME280;34336;48.270;16.716;2023-10-08T05:29:09;109325.25;;;18.16;45.50
48555;BME280;34336;48.270;16.716;2023-10-08T05:31:54;109325.25;;;18.16;45.47
48555;BME280;34336;48.270;16.716;2023-10-08T05:34:40;109325.25;;;18.16;45.29
48555;BME280;34336;48.270;16.716;2023-10-08T05:37:17;109325.25;;;18.16;45.22
48555;BME280;34336;48.270;16.716;2023-10-08T05:40:08;109325.25;;;18.16;44.99
48555;BME280;34336;48.270;16.716;2023-10-08T05:42:47;109325.25;;;18.16;44.84
48555;BME280;34336;48.270;16.716;2023-10-08T05:45:16;109325.25;;;18.16;44.41
48555;BME280;34336;48.270;16.716;2023-10-08T05:47:59;109325.25;;;18.16;44.25
48555;BME280;34336;48.270;16.716;2023-10-08T05:50:41;109325.25;;;18.16;44.15
48555;BME280;34336;48.270;16.716;2023-10-08T05:53:39;109325.25;;;18.16;43.96
48555;BME280;34336;48.270;16.716;2023-10-08T05:56:15;109325.25;;;18.16;43.32
48555;BME280;34336;48.270;16.716;2023-10-08T05:59:04;109325.25;;;18.16;42.87
48555;BME280;34336;48.270;16.716;2023-10-08T06:01:45;109325.25;;;18.16;42.20
48555;BME280;34336;48.270;16.716;2023-10-08T06:04:13;109325.25;;;18.16;41.69
48555;BME280;34336;48.270;16.716;2023-10-08T06:07:17;109325.25;;;18.16;41.19
48555;BME280;34336;48.270;16.716;2023-10-08T06:09:59;109325.25;;;18.16;40.22
48555;BME280;34336;48.270;16.716;2023-10-08T06:12:40;109325.25;;;18.16;40.76
48555;BME280;34336;48.270;16.716;2023-10-08T06:15:16;109325.25;;;18.16;40.75
48555;BME280;34336;48.270;16.716;2023-10-08T06:17:54;109325.25;;;18.16;40.62
48555;BME280;34336;48.270;16.716;2023-10-08T06:20:34;109325.25;;;18.16;40.36
48555;BME280;34336;48.270;16.716;2023-10-08T06:23:01;109325.25;;;18.16;40.29
48555;BME280;34336;48.270;16.716;2023-10-08T06:25:34;109325.25;;;18.16;39.96
48555;BME280;34336;48.270;16.716;2023-10-08T06:28:15;109325.25;;;18.16;39.27
48555;BME280;34336;48.270;16.716;2023-10-08T06:30:47;109325.25;;;18.16;38.99
48555;BME280;34336;48.270;16.716;2023-10-08T06:33:15;109325.25;;;18.16;38.86
48555;BME280;34336;48.270;16.716;2023-10-08T06:35:43;109325.25;;;18.16;39.63
48555;BME280;34336;48.270;16.716;2023-10-08T06:38:29;109325.25;;;18.16;38.33
48555;BME280;34336;48.270;16.716;2023-10-08T06:41:00;109325.25;;;18.16;38.06
48555;BME280;34336;48.270;16.716;2023-10-08T06:43:36;109325.25;;;18.16;37.43
48555;BME280;34336;48.270;16.716;2023-10-08T06:46:04;109325.25;;;18.16;37.20
48555;BME280;34336;48.270;16.716;2023-10-08T06:48:34;109325.25;;;18.16;37.78
48555;BME280;34336;48.270;16.716;2023-10-08T06:51:06;109325.25;;;18.16;38.07
48555;BME280;34336;48.270;16.716;2023-10-08T06:53:40;109325.25;;;18.16;37.72
48555;BME280;34336;48.270;16.716;2023-10-08T06:56:07;109325.25;;;18.16;37.91
48555;BME280;34336;48.270;16.716;2023-10-08T06:58:39;109325.25;;;18.16;37.44
48555;BME280;34336;48.270;16.716;2023-10-08T07:01:06;109325.25;;;18.16;38.47
48555;BME280;34336;48.270;16.716;2023-10-08T07:03:36;109325.25;;;18.16;38.51
48555;BME280;34336;48.270;16.716;2023-10-08T07:06:05;109325.25;;;18.16;38.98
48555;BME280;34336;48.270;16.716;2023-10-08T07:08:52;109325.25;;;18.16;37.83
48555;BME280;34336;48.270;16.716;2023-10-08T07:11:23;109325.25;;;18.16;37.41
48555;BME280;34336;48.270;16.716;2023-10-08T07:13:50;109325.25;;;18.16;38.40
48555;BME280;34336;48.270;16.716;2023-10-08T07:16:17;109325.25;;;18.16;38.68
48555;BME280;34336;48.270;16.716;2023-10-08T07:18:44;109325.25;;;18.16;37.98
48555;BME280;34336;48.270;16.716;2023-10-08T07:21:19;109325.25;;;18.16;37.38
48555;BME280;34336;48.270;16.716;2023-10-08T07:23:58;109325.25;;;18.16;38.10
48555;BME280;34336;48.270;16.716;2023-10-08T07:26:26;109325.25;;;18.16;39.16
48555;BME280;34336;48.270;16.716;2023-10-08T07:29:06;109325.25;;;18.16;40.10
48555;BME280;34336;48.270;16.716;2023-10-08T07:31:37;109325.25;;;18.16;40.74
48555;BME280;34336;48.270;16.716;2023-10-08T07:34:16;109325.25;;;18.16;41.52
48555;BME280;34336;48.270;16.716;2023-10-08T07:36:47;109325.25;;;18.16;41.64
48555;BME280;34336;48.270;16.716;2023-10-08T07:39:17;109325.25;;;18.16;40.59
48555;BME280;34336;48.270;16.716;2023-10-08T07:42:03;109325.25;;;18.16;40.61
48555;BME280;34336;48.270;16.716;2023-10-08T07:44:35;109325.25;;;18.16;39.99
48555;BME280;34336;48.270;16.716;2023-10-08T07:47:06;109325.25;;;18.16;40.23
48555;BME280;34336;48.270;16.716;2023-10-08T07:49:41;109325.25;;;18.16;41.35
48555;BME280;34336;48.270;16.716;2023-10-08T07:52:12;109325.25;;;18.16;41.31
48555;BME280;34336;48.270;16.716;2023-10-08T07:54:43;109325.25;;;18.16;41.48
48555;BME280;34336;48.270;16.716;2023-10-08T07:57:10;109325.25;;;18.16;42.25
48555;BME280;34336;48.270;16.716;2023-10-08T07:59:41;109325.25;;;18.16;43.16
48555;BME280;34336;48.270;16.716;2023-10-08T08:02:09;109325.25;;;18.16;44.07
48555;BME280;34336;48.270;16.716;2023-10-08T08:04:40;109325.25;;;18.16;45.02
48555;BME280;34336;48.270;16.716;2023-10-08T08:07:07;109325.25;;;18.16;45.54
48555;BME280;34336;48.270;16.716;2023-10-08T08:09:34;109325.25;;;18.16;45.88
48555;BME280;34336;48.270;16.716;2023-10-08T08:12:18;109325.25;;;18.16;45.86
48555;BME280;34336;48.270;16.716;2023-10-08T08:14:46;109325.25;;;18.16;46.32
48555;BME280;34336;48.270;16.716;2023-10-08T08:17:13;109325.25;;;18.16;46.35
48555;BME280;34336;48.270;16.716;2023-10-08T08:19:41;109325.25;;;18.16;46.30
48555;BME280;34336;48.270;16.716;2023-10-08T08:22:10;109325.25;;;18.16;46.37
48555;BME280;34336;48.270;16.716;2023-10-08T08:24:51;109325.25;;;18.16;46.56
48555;BME280;34336;48.270;16.716;2023-10-08T08:27:28;109325.25;;;18.16;46.60
48555;BME280;34336;48.270;16.716;2023-10-08T08:30:00;109325.25;;;18.16;46.68
48555;BME280;34336;48.270;16.716;2023-10-08T08:32:44;109325.25;;;18.16;46.97
48555;BME280;34336;48.270;16.716;2023-10-08T08:35:11;109325.25;;;18.16;47.20
48555;BME280;34336;48.270;16.716;2023-10-08T08:37:43;109325.25;;;18.16;50.07
48555;BME280;34336;48.270;16.716;2023-10-08T08:40:13;109325.25;;;18.16;52.27
48555;BME280;34336;48.270;16.716;2023-10-08T08:42:48;109325.25;;;18.16;53.63
48555;BME280;34336;48.270;16.716;2023-10-08T08:45:22;109325.25;;;18.16;54.26
48555;BME280;34336;48.270;16.716;2023-10-08T08:47:51;109325.25;;;18.16;55.06
48555;BME280;34336;48.270;16.716;2023-10-08T08:50:19;109325.25;;;18.16;55.75
48555;BME280;34336;48.270;16.716;2023-10-08T08:52:48;109325.25;;;18.16;56.41
48555;BME280;34336;48.270;16.716;2023-10-08T08:55:14;109325.25;;;18.16;56.77
48555;BME280;34336;48.270;16.716;2023-10-08T08:57:47;109325.25;;;18.16;57.33
48555;BME280;34336;48.270;16.716;2023-10-08T09:00:16;109325.25;;;18.16;57.66
48555;BME280;34336;48.270;16.716;2023-10-08T09:02:44;109325.25;;;18.16;58.20
48555;BME280;34336;48.270;16.716;2023-10-08T09:05:15;109325.25;;;18.16;58.35
48555;BME280;34336;48.270;16.716;2023-10-08T09:07:55;109325.25;;;18.16;59.07
48555;BME280;34336;48.270;16.716;2023-10-08T09:10:24;109325.25;;;18.16;59.77
48555;BME280;34336;48.270;16.716;2023-10-08T09:12:56;109325.25;;;18.16;60.27
48555;BME280;34336;48.270;16.716;2023-10-08T09:15:29;109325.25;;;18.16;60.40
48555;BME280;34336;48.270;16.716;2023-10-08T09:17:56;109325.25;;;18.16;60.71
48555;BME280;34336;48.270;16.716;2023-10-08T09:20:28;109325.25;;;18.16;61.08
48555;BME280;34336;48.270;16.716;2023-10-08T09:23:12;109325.25;;;18.16;61.30
48555;BME280;34336;48.270;16.716;2023-10-08T09:25:40;109325.25;;;18.16;61.63
48555;BME280;34336;48.270;16.716;2023-10-08T09:28:07;109325.25;;;18.16;61.94
48555;BME280;34336;48.270;16.716;2023-10-08T09:30:35;109325.25;;;18.16;61.48
48555;BME280;34336;48.270;16.716;2023-10-08T09:33:05;109325.25;;;18.16;61.66
48555;BME280;34336;48.270;16.716;2023-10-08T09:35:33;109325.25;;;18.16;61.58
48555;BME280;34336;48.270;16.716;2023-10-08T09:38:02;109325.25;;;18.16;62.25
48555;BME280;34336;48.270;16.716;2023-10-08T09:40:30;109325.25;;;18.16;62.58
48555;BME280;34336;48.270;16.716;2023-10-08T09:42:58;109325.25;;;18.16;62.63
48555;BME280;34336;48.270;16.716;2023-10-08T09:45:26;109325.25;;;18.16;62.94
48555;BME280;34336;48.270;16.716;2023-10-08T09:47:55;109325.25;;;18.16;62.55
48555;BME280;34336;48.270;16.716;2023-10-08T09:50:33;109325.25;;;18.16;62.42
48555;BME280;34336;48.270;16.716;2023-10-08T09:55:54;109325.25;;;18.16;62.32
48555;BME280;34336;48.270;16.716;2023-10-08T09:58:25;109325.25;;;18.16;62.79
48555;BME280;34336;48.270;16.716;2023-10-08T10:00:55;109325.25;;;18.16;63.13
48555;BME280;34336;48.270;16.716;2023-10-08T10:03:27;109325.25;;;18.16;63.46
48555;BME280;34336;48.270;16.716;2023-10-08T10:05:54;109325.25;;;18.16;63.76
48555;BME280;34336;48.270;16.716;2023-10-08T10:08:25;109325.25;;;18.16;63.37
48555;BME280;34336;48.270;16.716;2023-10-08T10:11:00;109325.25;;;18.16;64.01
48555;BME280;34336;48.270;16.716;2023-10-08T10:13:41;109325.25;;;18.16;63.88
48555;BME280;34336;48.270;16.716;2023-10-08T10:16:10;109325.25;;;18.16;63.84
48555;BME280;34336;48.270;16.716;2023-10-08T10:18:37;109325.25;;;18.16;64.02
48555;BME280;34336;48.270;16.716;2023-10-08T10:26:26;109325.25;;;18.16;64.25
48555;BME280;34336;48.270;16.716;2023-10-08T10:31:35;109325.25;;;18.16;64.24
48555;BME280;34336;48.270;16.716;2023-10-08T10:34:08;109325.25;;;18.16;64.18
48555;BME280;34336;48.270;16.716;2023-10-08T10:36:36;109325.25;;;18.16;64.56
48555;BME280;34336;48.270;16.716;2023-10-08T10:39:04;109325.25;;;18.16;64.24
48555;BME280;34336;48.270;16.716;2023-10-08T10:41:47;109325.25;;;18.16;64.13
48555;BME280;34336;48.270;16.716;2023-10-08T10:44:15;109325.25;;;18.16;63.96
48555;BME280;34336;48.270;16.716;2023-10-08T10:46:43;109325.25;;;18.16;64.08
48555;BME280;34336;48.270;16.716;2023-10-08T10:49:20;109325.25;;;18.16;63.85
48555;BME280;34336;48.270;16.716;2023-10-08T10:51:58;109325.25;;;18.16;64.19
48555;BME280;34336;48.270;16.716;2023-10-08T10:54:28;109325.25;;;18.16;64.13
48555;BME280;34336;48.270;16.716;2023-10-08T10:57:02;109325.25;;;18.16;64.19
48555;BME280;34336;48.270;16.716;2023-10-08T10:59:35;109325.25;;;18.16;63.62
48555;BME280;34336;48.270;16.716;2023-10-08T11:02:09;109325.25;;;18.16;63.75
48555;BME280;34336;48.270;16.716;2023-10-08T11:04:47;109325.25;;;18.16;63.91
48555;BME280;34336;48.270;16.716;2023-10-08T11:07:20;109325.25;;;18.16;64.01
48555;BME280;34336;48.270;16.716;2023-10-08T11:09:48;109325.25;;;18.16;64.19
48555;BME280;34336;48.270;16.716;2023-10-08T11:12:14;109325.25;;;18.16;64.51
48555;BME280;34336;48.270;16.716;2023-10-08T11:14:49;109325.25;;;18.16;64.64
48555;BME280;34336;48.270;16.716;2023-10-08T11:17:25;109325.25;;;18.16;65.70
48555;BME280;34336;48.270;16.716;2023-10-08T11:19:56;109325.25;;;18.16;66.19
48555;BME280;34336;48.270;16.716;2023-10-08T11:22:40;109325.25;;;18.16;66.35
48555;BME280;34336;48.270;16.716;2023-10-08T11:25:20;109325.25;;;18.16;67.33
48555;BME280;34336;48.270;16.716;2023-10-08T11:27:53;109325.25;;;18.16;65.21
48555;BME280;34336;48.270;16.716;2023-10-08T11:30:28;109325.25;;;18.16;64.72
48555;BME280;34336;48.270;16.716;2023-10-08T11:33:01;109325.25;;;18.16;64.56
48555;BME280;34336;48.270;16.716;2023-10-08T11:35:28;109325.25;;;18.16;65.01
48555;BME280;34336;48.270;16.716;2023-10-08T11:37:59;109325.25;;;18.16;65.08
48555;BME280;34336;48.270;16.716;2023-10-08T11:40:27;109325.25;;;18.16;66.25
48555;BME280;34336;48.270;16.716;2023-10-08T11:43:17;109325.25;;;18.16;68.00
48555;BME280;34336;48.270;16.716;2023-10-08T11:45:44;109325.25;;;18.16;69.14
48555;BME280;34336;48.270;16.716;2023-10-08T11:48:17;109325.25;;;18.16;70.94
48555;BME280;34336;48.270;16.716;2023-10-08T11:50:55;109325.25;;;18.16;70.84
48555;BME280;34336;48.270;16.716;2023-10-08T11:53:27;109325.25;;;18.16;72.01
48555;BME280;34336;48.270;16.716;2023-10-08T11:55:55;109325.25;;;18.16;71.43
48555;BME280;34336;48.270;16.716;2023-10-08T11:58:23;109325.25;;;18.16;71.78
48555;BME280;34336;48.270;16.716;2023-10-08T12:01:04;109325.25;;;18.16;72.75
48555;BME280;34336;48.270;16.716;2023-10-08T12:03:31;109325.25;;;18.16;72.88
48555;BME280;34336;48.270;16.716;2023-10-08T12:05:58;109325.25;;;18.16;72.61
48555;BME280;34336;48.270;16.716;2023-10-08T12:08:27;109325.25;;;18.16;72.38
48555;BME280;34336;48.270;16.716;2023-10-08T12:10:54;109325.25;;;18.16;73.45
48555;BME280;34336;48.270;16.716;2023-10-08T12:13:22;109325.25;;;18.16;73.37
48555;BME280;34336;48.270;16.716;2023-10-08T12:15:54;109325.25;;;18.16;73.22
48555;BME280;34336;48.270;16.716;2023-10-08T12:18:38;109325.25;;;18.16;73.39
48555;BME280;34336;48.270;16.716;2023-10-08T12:21:10;109325.25;;;18.16;73.36
48555;BME280;34336;48.270;16.716;2023-10-08T12:23:38;109325.25;;;18.16;73.29
48555;BME280;34336;48.270;16.716;2023-10-08T12:26:05;109325.25;;;18.16;71.65
48555;BME280;34336;48.270;16.716;2023-10-08T12:28:36;109325.25;;;18.16;70.10
48555;BME280;34336;48.270;16.716;2023-10-08T12:31:03;109325.25;;;18.16;70.76
48555;BME280;34336;48.270;16.716;2023-10-08T12:33:32;109325.25;;;18.16;68.34
48555;BME280;34336;48.270;16.716;2023-10-08T12:36:01;109325.25;;;18.16;67.25
48555;BME280;34336;48.270;16.716;2023-10-08T12:38:42;109325.25;;;18.16;65.75
48555;BME280;34336;48.270;16.716;2023-10-08T12:41:12;109325.25;;;18.16;65.96
48555;BME280;34336;48.270;16.716;2023-10-08T12:43:41;109325.25;;;18.16;65.22
48555;BME280;34336;48.270;16.716;2023-10-08T12:46:20;109325.25;;;18.16;64.49
48555;BME280;34336;48.270;16.716;2023-10-08T12:48:57;109325.25;;;18.16;63.16
48555;BME280;34336;48.270;16.716;2023-10-08T12:51:28;109325.25;;;18.16;60.50
48555;BME280;34336;48.270;16.716;2023-10-08T12:53:59;109325.25;;;18.16;59.54
48555;BME280;34336;48.270;16.716;2023-10-08T12:56:34;109325.25;;;18.16;58.17
48555;BME280;34336;48.270;16.716;2023-10-08T12:59:15;109325.25;;;18.16;59.24
48555;BME280;34336;48.270;16.716;2023-10-08T13:01:50;109325.25;;;18.16;57.61
48555;BME280;34336;48.270;16.716;2023-10-08T13:04:18;109325.25;;;18.16;57.80
48555;BME280;34336;48.270;16.716;2023-10-08T13:06:56;109325.25;;;18.16;56.73
48555;BME280;34336;48.270;16.716;2023-10-08T13:09:25;109325.25;;;18.16;55.27
48555;BME280;34336;48.270;16.716;2023-10-08T13:11:52;109325.25;;;18.16;54.85
48555;BME280;34336;48.270;16.716;2023-10-08T13:14:19;109325.25;;;18.16;54.50
48555;BME280;34336;48.270;16.716;2023-10-08T13:16:49;109325.25;;;18.16;52.97
48555;BME280;34336;48.270;16.716;2023-10-08T13:19:20;109325.25;;;18.16;53.65